Time;durP1;ratioP1;P1;durP2;ratioP2;P2;SDS_P1;SDS_P2;PMS_P1;PMS_P2;Temp;Humidity;BMP_temperature;BMP_pressure;BME280_temperature;BME280_humidity;BME280_pressure;Samples;Min_cycle;Max_cycle;Signal;HPM_P1;HPM_P2
2023/07/11 00:00:38;;;;;;;9.30;3.90;;;;;;;18.50;72.69;100589.48;106869;1258;96413;-81
2023/07/11 00:03:36;;;;;;;7.90;3.70;;;;;;;18.41;72.79;100581.02;106865;1254;95957;-81
2023/07/11 00:06:21;;;;;;;7.50;3.40;;;;;;;18.31;72.98;100578.89;107009;1253;100890;-81
2023/07/11 00:09:07;;;;;;;4.10;3.00;;;;;;;18.23;73.06;100580.06;107016;1254;99129;-81
2023/07/11 00:11:52;;;;;;;4.50;3.00;;;;;;;18.19;73.16;100579.65;106944;1256;98382;-81
2023/07/11 00:14:38;;;;;;;5.80;3.20;;;;;;;18.18;73.25;100576.42;106717;1256;96813;-80
2023/07/11 00:17:24;;;;;;;4.90;3.00;;;;;;;18.22;73.44;100573.16;107112;1253;96400;-81
2023/07/11 00:20:11;;;;;;;8.10;2.90;;;;;;;18.30;73.58;100570.67;106828;1254;101207;-81
2023/07/11 00:22:57;;;;;;;4.90;3.00;;;;;;;18.35;73.43;100560.54;107105;1253;100509;-81
2023/07/11 00:25:43;;;;;;;4.30;2.90;;;;;;;18.29;73.39;100552.84;106755;1254;99412;-80
2023/07/11 00:28:29;;;;;;;6.60;3.00;;;;;;;18.20;73.29;100549.30;106763;1260;96597;-81
2023/07/11 00:31:14;;;;;;;6.00;4.10;;;;;;;18.11;73.39;100553.19;107000;1253;96953;-81
2023/07/11 00:33:59;;;;;;;4.70;2.60;;;;;;;18.00;73.64;100546.63;106935;1258;100672;-81
2023/07/11 00:36:44;;;;;;;4.30;3.40;;;;;;;17.88;74.01;100547.23;106990;1254;99734;-81
2023/07/11 00:39:33;;;;;;;8.20;3.70;;;;;;;17.77;74.42;100547.92;106919;1253;98911;-81
2023/07/11 01:04:35;;;;;;;4.30;3.50;;;;;;;17.40;76.65;100513.67;103581;1290;634981;-80
2023/07/11 01:07:25;;;;;;;4.10;3.60;;;;;;;17.32;76.84;100519.31;106040;1270;94407;-81
2023/07/11 01:10:11;;;;;;;4.70;3.00;;;;;;;17.23;77.09;100522.98;106272;1264;95926;-81
2023/07/11 01:13:00;;;;;;;3.70;3.30;;;;;;;17.13;77.26;100522.23;106304;1267;97321;-81
2023/07/11 01:15:45;;;;;;;5.80;3.30;;;;;;;17.05;77.73;100520.95;106203;1267;99204;-82
2023/07/11 01:18:31;;;;;;;5.10;3.20;;;;;;;17.01;78.26;100514.65;106323;1263;147614;-81
2023/07/11 01:21:18;;;;;;;4.30;3.20;;;;;;;16.97;78.48;100516.80;106690;1265;94399;-82
2023/07/11 01:24:04;;;;;;;4.20;3.40;;;;;;;16.95;78.95;100516.74;107337;1263;95892;-82
2023/07/11 01:26:49;;;;;;;5.50;3.40;;;;;;;16.93;79.35;100516.80;106286;1269;97294;-81
2023/07/11 01:29:35;;;;;;;3.50;2.90;;;;;;;16.97;79.39;100520.13;106333;1263;100230;-82
2023/07/11 01:32:21;;;;;;;4.70;3.20;;;;;;;17.01;79.64;100520.90;106225;1263;97884;-82
2023/07/11 01:35:07;;;;;;;4.30;3.10;;;;;;;17.03;79.92;100522.88;106396;1262;95889;-82
2023/07/11 01:37:53;;;;;;;6.50;3.10;;;;;;;17.05;80.08;100525.80;106457;1263;95975;-82
2023/07/11 01:40:39;;;;;;;3.90;2.90;;;;;;;17.07;80.10;100524.30;106451;1262;100030;-82
2023/07/11 01:43:26;;;;;;;4.80;2.80;;;;;;;17.07;80.28;100526.64;106329;1263;99306;-81
2023/07/11 01:46:12;;;;;;;3.80;3.30;;;;;;;17.07;80.30;100525.11;106249;1263;99137;-82
2023/07/11 01:48:58;;;;;;;3.80;3.30;;;;;;;17.05;80.48;100525.81;106405;1263;95884;-82
2023/07/11 01:51:45;;;;;;;6.50;3.00;;;;;;;17.04;80.58;100525.94;106279;1263;95840;-81
2023/07/11 01:54:31;;;;;;;4.90;3.40;;;;;;;17.04;80.69;100517.45;106499;1259;98836;-82
2023/07/11 01:57:17;;;;;;;5.90;3.20;;;;;;;17.04;80.94;100514.70;106639;1259;100405;-82
2023/07/11 02:00:03;;;;;;;5.80;3.30;;;;;;;17.02;80.89;100511.73;106342;1260;97711;-81
2023/07/11 02:02:48;;;;;;;4.80;3.00;;;;;;;16.98;80.92;100513.99;106608;1259;95936;-81
2023/07/11 02:05:34;;;;;;;5.80;3.10;;;;;;;16.92;81.14;100519.46;106614;1263;95833;-82
2023/07/11 02:08:19;;;;;;;4.60;2.90;;;;;;;16.86;81.51;100525.73;106404;1262;98784;-82
2023/07/11 02:11:05;;;;;;;4.60;3.10;;;;;;;16.81;81.55;100533.88;106384;1262;99141;-82
2023/07/11 02:13:51;;;;;;;5.30;3.10;;;;;;;16.74;82.11;100538.45;106428;1260;98646;-82
2023/07/11 02:16:37;;;;;;;4.50;2.80;;;;;;;16.71;82.38;100535.76;106467;1262;95835;-82
2023/07/11 02:19:25;;;;;;;4.70;3.00;;;;;;;16.70;82.52;100522.65;106475;1268;96678;-81
2023/07/11 02:22:12;;;;;;;3.60;3.00;;;;;;;16.72;82.84;100521.88;106518;1260;99892;-82
2023/07/11 02:24:57;;;;;;;5.70;3.00;;;;;;;16.73;82.68;100523.83;106617;1258;99120;-82
2023/07/11 02:27:43;;;;;;;3.20;2.80;;;;;;;16.75;82.63;100520.64;106490;1258;98760;-83
2023/07/11 02:30:28;;;;;;;5.80;3.30;;;;;;;16.76;82.72;100518.67;106508;1258;95982;-81
2023/07/11 02:33:14;;;;;;;6.90;3.50;;;;;;;16.79;82.77;100518.09;106639;1260;96128;-82
2023/07/11 02:35:59;;;;;;;4.30;2.90;;;;;;;16.82;82.84;100513.30;106325;1260;98709;-82
2023/07/11 02:38:45;;;;;;;3.60;2.80;;;;;;;16.86;82.75;100513.95;106329;1260;99185;-82
2023/07/11 02:41:30;;;;;;;3.60;2.90;;;;;;;16.89;82.79;100521.43;106443;1262;97787;-81
2023/07/11 02:44:16;;;;;;;5.80;2.80;;;;;;;16.90;82.88;100528.17;106738;1256;95818;-81
2023/07/11 02:47:02;;;;;;;7.70;3.20;;;;;;;16.89;82.83;100529.19;106707;1256;95915;-81
2023/07/11 02:49:48;;;;;;;5.50;3.10;;;;;;;16.91;83.07;100533.41;106705;1260;100005;-81
2023/07/11 02:52:34;;;;;;;6.40;3.20;;;;;;;16.97;83.22;100537.56;106609;1255;99133;-84
2023/07/11 02:55:20;;;;;;;4.20;3.00;;;;;;;17.00;83.06;100548.84;106836;1255;97744;-81
2023/07/11 02:58:06;;;;;;;5.10;3.10;;;;;;;16.97;83.37;100555.55;106592;1259;95893;-82
2023/07/11 03:00:58;;;;;;;3.30;2.80;;;;;;;16.94;83.52;100562.92;106585;1256;95890;-82
2023/07/11 03:03:43;;;;;;;3.70;2.90;;;;;;;16.90;83.73;100562.60;106749;1259;98662;-81
2023/07/11 03:06:29;;;;;;;5.60;2.90;;;;;;;16.87;83.89;100556.69;106612;1254;100333;-82
2023/07/11 03:09:14;;;;;;;6.30;3.90;;;;;;;16.89;84.09;100551.48;106971;1259;98958;-80
2023/07/11 03:12:00;;;;;;;5.60;2.90;;;;;;;16.90;84.09;100553.71;106858;1254;95778;-81
2023/07/11 03:14:49;;;;;;;4.50;3.30;;;;;;;16.88;84.03;100559.98;106734;1254;96674;-81
2023/07/11 03:17:34;;;;;;;3.90;3.00;;;;;;;16.87;84.27;100571.23;106425;1254;99303;-81
2023/07/11 03:20:20;;;;;;;8.40;3.50;;;;;;;16.85;84.44;100570.20;106646;1254;100239;-81
2023/07/11 03:23:08;;;;;;;5.30;2.80;;;;;;;16.86;84.65;100568.02;106724;1255;98622;-82
2023/07/11 03:25:53;;;;;;;3.00;2.70;;;;;;;16.91;84.53;100566.08;106617;1259;95200;-81
2023/07/11 03:28:39;;;;;;;2.80;2.40;;;;;;;16.97;84.47;100578.11;106659;1254;95996;-81
2023/07/11 03:31:24;;;;;;;5.30;2.90;;;;;;;16.97;84.73;100600.26;106873;1256;99992;-82
2023/07/11 03:34:10;;;;;;;5.00;2.80;;;;;;;16.89;84.82;100611.77;106606;1256;100092;-81
2023/07/11 03:36:55;;;;;;;2.90;2.60;;;;;;;16.83;85.14;100602.60;106719;1256;97832;-81
2023/07/11 03:39:41;;;;;;;5.20;3.20;;;;;;;16.81;85.26;100599.13;106756;1259;95929;-82
2023/07/11 03:42:27;;;;;;;4.50;2.60;;;;;;;16.78;85.44;100605.86;106725;1255;96587;-81
2023/07/11 03:45:12;;;;;;;3.80;3.30;;;;;;;16.76;85.37;100614.35;106905;1259;98738;-81
2023/07/11 03:47:57;;;;;;;4.10;3.10;;;;;;;16.73;85.59;100619.80;106790;1254;100924;-81
2023/07/11 03:50:43;;;;;;;3.20;2.40;;;;;;;16.72;85.77;100625.48;106552;1254;98733;-81
2023/07/11 03:53:28;;;;;;;6.00;3.10;;;;;;;16.73;85.90;100626.02;106645;1259;97190;-81
2023/07/11 03:56:14;;;;;;;6.00;2.90;;;;;;;16.74;86.07;100640.31;106662;1256;95750;-82
2023/07/11 03:59:00;;;;;;;3.40;2.60;;;;;;;16.75;86.20;100653.27;106680;1254;99514;-81
2023/07/11 04:01:46;;;;;;;4.40;2.90;;;;;;;16.76;86.15;100656.72;106640;1254;99189;-81
2023/07/11 04:04:33;;;;;;;5.10;2.70;;;;;;;16.78;86.24;100659.38;106492;1259;97823;-81
2023/07/11 04:07:18;;;;;;;3.70;3.00;;;;;;;16.81;86.06;100662.35;106341;1257;95874;-82
2023/07/11 04:10:07;;;;;;;3.70;2.70;;;;;;;16.85;86.23;100653.90;106534;1256;95903;-82
2023/07/11 04:12:53;;;;;;;5.60;2.70;;;;;;;16.88;86.00;100653.29;106542;1256;98633;-81
2023/07/11 04:15:38;;;;;;;6.60;3.10;;;;;;;16.92;86.00;100661.36;106278;1259;99905;-83
2023/07/11 04:18:24;;;;;;;4.80;2.50;;;;;;;16.93;86.12;100665.52;106380;1256;97746;-82
2023/07/11 04:21:10;;;;;;;4.30;2.60;;;;;;;16.98;86.03;100662.83;106509;1256;95972;-83
2023/07/11 04:23:55;;;;;;;5.60;2.90;;;;;;;17.04;85.95;100660.95;106720;1254;95938;-82
2023/07/11 04:26:41;;;;;;;5.20;3.00;;;;;;;17.10;85.69;100661.51;106494;1261;98652;-83
2023/07/11 04:29:26;;;;;;;3.40;2.70;;;;;;;17.16;85.64;100659.98;106516;1254;100450;-82
2023/07/11 04:32:12;;;;;;;4.80;3.00;;;;;;;17.21;85.76;100662.89;106785;1255;98386;-82
2023/07/11 04:34:57;;;;;;;9.30;3.10;;;;;;;17.26;86.02;100665.21;106508;1260;95905;-82
2023/07/11 04:37:43;;;;;;;3.40;2.60;;;;;;;17.30;86.13;100668.77;106679;1256;95759;-83
2023/07/11 04:40:28;;;;;;;4.00;2.50;;;;;;;17.34;85.76;100668.52;106647;1257;99473;-82
2023/07/11 04:43:13;;;;;;;4.60;2.80;;;;;;;17.38;85.77;100669.05;106583;1256;99864;-83
2023/07/11 04:46:01;;;;;;;3.00;2.20;;;;;;;17.39;85.67;100669.83;106647;1261;97790;-82
2023/07/11 04:48:47;;;;;;;4.80;2.20;;;;;;;17.42;85.76;100670.36;106650;1257;95806;-82
2023/07/11 04:51:32;;;;;;;4.30;2.60;;;;;;;17.45;85.77;100669.41;106775;1256;96888;-82
2023/07/11 04:54:17;;;;;;;3.90;2.50;;;;;;;17.49;85.59;100663.88;106783;1259;99875;-83
2023/07/11 04:57:03;;;;;;;5.60;2.60;;;;;;;17.52;85.57;100659.63;106784;1256;99064;-83
2023/07/11 04:59:49;;;;;;;4.10;2.10;;;;;;;17.55;85.37;100655.80;106616;1255;97695;-83
2023/07/11 05:02:35;;;;;;;4.40;2.40;;;;;;;17.62;85.48;100657.45;106627;1259;95830;-83
2023/07/11 05:05:21;;;;;;;4.10;2.50;;;;;;;17.71;85.46;100655.17;106862;1256;96291;-83
2023/07/11 05:08:07;;;;;;;2.50;2.00;;;;;;;17.82;85.23;100656.05;106619;1256;107272;-83
2023/07/11 05:10:58;;;;;;;3.00;2.70;;;;;;;17.88;85.11;100650.23;106755;1256;99148;-82
2023/07/11 05:13:46;;;;;;;3.30;2.20;;;;;;;17.99;85.02;100638.71;106484;1255;97768;-83
2023/07/11 05:16:32;;;;;;;3.00;2.20;;;;;;;18.15;84.89;100637.33;106584;1255;95880;-83
2023/07/11 05:19:18;;;;;;;3.20;2.30;;;;;;;18.31;84.05;100639.54;106880;1256;95902;-83
2023/07/11 05:22:04;;;;;;;4.20;2.60;;;;;;;18.41;83.87;100643.30;106800;1259;98791;-84
2023/07/11 05:24:49;;;;;;;5.00;2.20;;;;;;;18.55;83.77;100641.08;106717;1257;99078;-84
2023/07/11 05:27:34;;;;;;;5.00;3.50;;;;;;;18.69;83.10;100656.05;106816;1257;97817;-83
2023/07/11 05:30:20;;;;;;;2.90;2.00;;;;;;;18.74;81.81;100662.39;106742;1259;95923;-83
2023/07/11 05:33:05;;;;;;;2.60;2.20;;;;;;;18.77;81.88;100663.49;106468;1259;95957;-83
2023/07/11 05:36:05;;;;;;;2.30;2.00;;;;;;;18.78;81.12;100661.93;106745;1253;100287;-83
2023/07/11 05:38:51;;;;;;;2.00;1.90;;;;;;;18.79;80.50;100658.10;106707;1253;99146;-82
2023/07/11 05:41:44;;;;;;;1.60;1.50;;;;;;;18.83;80.47;100659.55;106774;1253;97761;-82
2023/07/11 05:44:30;;;;;;;2.50;1.80;;;;;;;18.88;79.83;100662.10;106898;1253;96532;-82
2023/07/11 05:47:15;;;;;;;2.90;2.10;;;;;;;18.90;79.51;100664.10;106604;1260;97123;-82
2023/07/11 05:50:01;;;;;;;2.60;1.90;;;;;;;18.93;79.22;100670.56;106746;1253;100043;-82
2023/07/11 05:52:46;;;;;;;4.80;1.90;;;;;;;18.96;78.97;100673.55;106939;1253;99760;-83
2023/07/11 05:55:31;;;;;;;4.20;2.20;;;;;;;18.97;78.21;100682.27;106672;1254;97830;-82
2023/07/11 05:58:16;;;;;;;3.10;2.00;;;;;;;18.95;77.92;100683.70;106926;1256;96437;-82
2023/07/11 06:01:02;;;;;;;3.70;1.90;;;;;;;18.97;77.82;100684.89;106840;1253;96375;-82
2023/07/11 06:03:49;;;;;;;2.10;1.80;;;;;;;19.04;77.92;100690.56;106676;1253;101316;-82
2023/07/11 06:06:41;;;;;;;3.00;2.00;;;;;;;19.10;78.27;100694.44;106670;1254;100541;-83
2023/07/11 06:09:27;;;;;;;3.40;2.00;;;;;;;19.14;77.89;100696.05;106648;1253;97789;-83
2023/07/11 06:12:12;;;;;;;2.70;2.10;;;;;;;19.15;77.39;100699.98;106838;1256;96574;-84
2023/07/11 06:14:58;;;;;;;3.60;2.10;;;;;;;19.20;77.19;100700.84;106662;1253;97108;-82
2023/07/11 06:17:43;;;;;;;2.50;1.90;;;;;;;19.30;77.14;100702.52;106555;1254;100007;-82
2023/07/11 06:20:29;;;;;;;1.90;1.70;;;;;;;19.39;77.08;100698.83;106779;1254;99090;-82
2023/07/11 06:23:14;;;;;;;4.80;1.80;;;;;;;19.49;76.35;100701.18;107437;1257;99031;-83
2023/07/11 06:26:00;;;;;;;3.30;2.00;;;;;;;19.55;75.81;100703.96;106741;1258;96702;-82
2023/07/11 06:28:45;;;;;;;2.90;2.00;;;;;;;19.62;76.13;100702.89;106674;1253;96776;-83
2023/07/11 06:31:30;;;;;;;1.70;1.60;;;;;;;19.72;75.98;100703.02;106784;1260;101389;-82
2023/07/11 06:34:16;;;;;;;2.70;1.80;;;;;;;19.76;75.08;100702.84;106480;1253;99144;-84
2023/07/11 06:37:01;;;;;;;2.00;1.70;;;;;;;19.82;74.39;100699.79;106267;1259;97776;-83
2023/07/11 06:39:46;;;;;;;2.20;1.70;;;;;;;19.85;74.32;100702.63;106530;1253;96511;-80
2023/07/11 06:42:32;;;;;;;2.50;1.70;;;;;;;19.90;74.06;100703.35;106632;1253;98260;-83
2023/07/11 06:45:19;;;;;;;2.20;1.50;;;;;;;19.90;73.64;100704.73;106541;1258;100060;-83
2023/07/11 06:48:04;;;;;;;1.90;1.70;;;;;;;19.88;73.30;100702.56;106654;1258;107664;-82
2023/07/11 06:50:53;;;;;;;2.50;1.60;;;;;;;19.89;73.20;100703.21;106536;1260;97793;-82
2023/07/11 06:53:39;;;;;;;1.70;1.60;;;;;;;19.91;73.11;100704.58;106107;1254;96583;-83
2023/07/11 06:56:25;;;;;;;2.50;1.90;;;;;;;19.97;72.93;100700.55;106445;1259;97166;-82
2023/07/11 06:59:21;;;;;;;5.30;2.20;;;;;;;19.99;73.04;100700.15;106461;1260;100084;-82
2023/07/11 07:02:08;;;;;;;4.20;2.00;;;;;;;20.02;72.99;100702.76;106309;1262;99191;-84
2023/07/11 07:04:55;;;;;;;1.90;1.60;;;;;;;20.03;72.74;100713.98;106429;1258;97698;-83
2023/07/11 07:07:41;;;;;;;2.50;1.90;;;;;;;20.00;72.60;100715.99;106455;1254;96632;-82
2023/07/11 07:10:27;;;;;;;2.30;2.00;;;;;;;19.98;72.82;100714.16;106208;1253;96539;-82
2023/07/11 07:13:14;;;;;;;3.20;1.70;;;;;;;19.99;73.31;100719.95;106406;1259;102261;-83
2023/07/11 07:16:02;;;;;;;2.30;1.70;;;;;;;20.01;73.39;100720.14;106296;1259;99185;-83
2023/07/11 07:18:47;;;;;;;2.80;2.10;;;;;;;20.00;72.93;100724.58;106458;1253;97711;-83
2023/07/11 07:21:33;;;;;;;2.80;1.60;;;;;;;19.99;73.03;100727.77;106810;1260;96567;-83
2023/07/11 07:24:19;;;;;;;5.40;2.00;;;;;;;19.99;72.83;100724.14;106675;1256;96552;-82
2023/07/11 07:27:04;;;;;;;3.00;1.70;;;;;;;19.97;72.92;100721.38;106384;1260;100095;-83
2023/07/11 07:29:51;;;;;;;1.90;1.70;;;;;;;19.98;73.06;100725.70;106592;1259;99074;-85
2023/07/11 07:32:37;;;;;;;2.90;1.90;;;;;;;20.00;73.07;100731.22;106396;1253;97819;-83
2023/07/11 07:35:23;;;;;;;4.10;2.00;;;;;;;20.00;73.01;100730.02;106244;1260;96007;-84
2023/07/11 07:38:09;;;;;;;3.60;2.10;;;;;;;20.00;73.75;100732.90;106423;1253;96515;-82
2023/07/11 07:40:58;;;;;;;2.20;2.00;;;;;;;19.96;73.93;100732.73;106466;1254;101341;-83
2023/07/11 07:43:43;;;;;;;2.70;1.80;;;;;;;19.93;73.77;100737.02;106474;1253;99159;-82
2023/07/11 07:46:29;;;;;;;4.40;2.20;;;;;;;19.90;73.61;100736.73;106347;1260;99481;-84
2023/07/11 07:49:14;;;;;;;2.90;1.90;;;;;;;19.88;73.84;100736.77;106547;1259;96657;-84
2023/07/11 07:52:00;;;;;;;4.10;2.30;;;;;;;19.86;73.89;100737.61;106286;1262;97054;-84
2023/07/11 07:54:45;;;;;;;3.00;2.20;;;;;;;19.83;74.02;100742.12;106439;1253;100007;-84
2023/07/11 07:57:30;;;;;;;3.90;2.00;;;;;;;19.81;74.27;100744.68;106342;1263;99613;-83
2023/07/11 08:00:16;;;;;;;2.10;1.70;;;;;;;19.79;74.40;100743.94;106609;1254;98146;-84
2023/07/11 08:03:09;;;;;;;4.00;2.00;;;;;;;19.76;74.36;100748.40;106608;1259;96751;-84
2023/07/11 08:05:55;;;;;;;2.60;1.90;;;;;;;19.73;74.80;100751.92;106198;1262;96630;-83
2023/07/11 08:08:41;;;;;;;5.10;2.00;;;;;;;19.71;74.66;100748.04;106452;1254;101382;-83
2023/07/11 08:11:27;;;;;;;3.60;2.10;;;;;;;19.71;74.95;100753.40;106443;1260;100176;-83
2023/07/11 08:14:13;;;;;;;4.50;1.90;;;;;;;19.74;75.38;100761.98;106400;1254;98669;-83
2023/07/11 08:16:58;;;;;;;3.00;1.90;;;;;;;19.78;75.45;100762.23;106367;1254;97028;-83
2023/07/11 08:19:44;;;;;;;7.40;2.50;;;;;;;19.80;75.50;100762.77;106482;1254;97044;-83
2023/07/11 08:22:29;;;;;;;3.70;2.10;;;;;;;19.81;75.52;100770.98;106304;1254;101227;-84
2023/07/11 08:25:14;;;;;;;2.10;1.90;;;;;;;19.78;75.76;100773.06;106653;1253;99246;-83
2023/07/11 08:28:00;;;;;;;5.30;1.70;;;;;;;19.78;75.59;100778.93;106388;1254;98991;-84
2023/07/11 08:30:46;;;;;;;2.00;1.80;;;;;;;19.79;75.85;100782.65;106294;1262;96606;-82
2023/07/11 08:33:32;;;;;;;2.10;1.90;;;;;;;19.81;76.08;100778.05;106517;1261;96645;-83
2023/07/11 08:36:17;;;;;;;4.00;2.10;;;;;;;19.83;76.24;100776.76;106557;1254;101292;-83
2023/07/11 08:39:03;;;;;;;3.80;1.70;;;;;;;19.86;75.73;100780.07;106468;1253;99163;-83
2023/07/11 08:41:55;;;;;;;3.70;1.90;;;;;;;19.87;75.73;100782.46;106554;1253;97710;-82
2023/07/11 08:44:59;;;;;;;3.80;1.60;;;;;;;19.83;75.50;100790.60;106505;1254;96538;-83
2023/07/11 08:47:57;;;;;;;4.40;2.00;;;;;;;19.74;75.62;100795.55;106398;1259;97160;-83
2023/07/11 08:51:14;;;;;;;3.10;2.50;;;;;;;19.70;75.75;100794.81;106516;1254;101202;-84
2023/07/11 08:54:22;;;;;;;2.60;2.10;;;;;;;19.64;76.09;100795.28;106433;1259;99281;-82
2023/07/11 08:57:10;;;;;;;2.00;1.80;;;;;;;19.56;76.50;100795.02;106597;1254;106750;-82
2023/07/11 08:59:56;;;;;;;2.70;2.00;;;;;;;19.54;76.75;100799.16;106495;1253;96668;-83
2023/07/11 09:02:54;;;;;;;4.80;2.40;;;;;;;19.48;77.07;100802.66;106529;1259;97093;-83
2023/07/11 09:05:57;;;;;;;4.50;2.50;;;;;;;19.41;77.50;100808.98;106583;1253;100075;-82
2023/07/11 09:08:44;;;;;;;3.10;2.00;;;;;;;19.37;78.35;100813.40;106358;1253;99323;-83
2023/07/11 09:11:36;;;;;;;4.00;2.10;;;;;;;19.36;79.14;100817.13;106422;1254;98972;-83
2023/07/11 09:14:28;;;;;;;2.00;1.80;;;;;;;19.39;79.59;100813.60;106602;1253;96517;-82
2023/07/11 09:17:30;;;;;;;3.80;2.40;;;;;;;19.42;79.51;100813.08;106534;1259;97140;-82
2023/07/11 09:20:49;;;;;;;4.20;2.10;;;;;;;19.41;79.15;100808.39;106404;1254;100080;-82
2023/07/11 09:23:53;;;;;;;5.50;2.50;;;;;;;19.42;79.42;100805.73;107839;1259;99878;-82
2023/07/11 09:26:49;;;;;;;3.60;2.30;;;;;;;19.47;79.30;100798.34;106437;1259;98506;-82
2023/07/11 09:29:35;;;;;;;4.00;2.40;;;;;;;19.58;80.01;100797.83;106639;1253;96994;-81
2023/07/11 09:32:29;;;;;;;3.10;2.40;;;;;;;19.69;79.73;100803.20;106601;1259;97240;-84
2023/07/11 09:35:27;;;;;;;3.10;2.40;;;;;;;19.79;79.68;100799.23;106467;1260;99951;-83
2023/07/11 09:38:27;;;;;;;3.90;2.50;;;;;;;19.88;78.60;100797.80;106363;1254;100398;-84
2023/07/11 09:41:25;;;;;;;5.40;2.40;;;;;;;19.94;78.59;100793.48;106456;1254;98470;-82
2023/07/11 09:44:11;;;;;;;2.50;2.10;;;;;;;20.02;78.62;100791.61;106515;1254;96576;-82
2023/07/11 09:47:12;;;;;;;2.20;2.00;;;;;;;20.08;77.82;100787.33;106481;1260;96614;-83
2023/07/11 09:50:05;;;;;;;2.90;2.30;;;;;;;20.16;77.90;100790.20;106346;1257;100710;-81
2023/07/11 09:52:51;;;;;;;4.20;2.30;;;;;;;20.22;77.12;100791.63;106483;1254;99231;-83
2023/07/11 09:55:37;;;;;;;2.50;2.30;;;;;;;20.27;76.99;100788.77;106618;1259;97800;-82
2023/07/11 09:58:26;;;;;;;2.80;2.10;;;;;;;20.31;76.76;100786.80;106359;1254;96604;-82
2023/07/11 10:01:22;;;;;;;2.50;2.00;;;;;;;20.35;76.54;100783.98;106533;1259;97896;-83
2023/07/11 10:04:15;;;;;;;2.40;1.80;;;;;;;20.40;76.14;100779.00;106544;1254;100125;-82
2023/07/11 10:07:05;;;;;;;2.10;1.90;;;;;;;20.47;76.21;100782.17;106498;1254;99179;-83
2023/07/11 10:09:51;;;;;;;4.40;1.90;;;;;;;20.52;75.51;100778.71;106531;1254;99041;-83
2023/07/11 10:12:37;;;;;;;3.60;2.10;;;;;;;20.56;75.29;100776.23;106521;1259;96607;-81
2023/07/11 10:15:25;;;;;;;3.10;2.30;;;;;;;20.60;74.73;100776.08;106275;1260;96524;-82
2023/07/11 10:18:32;;;;;;;2.30;2.10;;;;;;;20.66;74.60;100771.92;106485;1256;99987;-84
2023/07/11 10:21:24;;;;;;;3.00;1.90;;;;;;;20.77;74.12;100770.34;106330;1262;99163;-82
2023/07/11 10:24:25;;;;;;;2.20;1.90;;;;;;;20.88;73.97;100763.15;106162;1265;99074;-84
2023/07/11 10:27:14;;;;;;;4.60;2.50;;;;;;;21.01;74.33;100761.52;106330;1258;96698;-84
2023/07/11 10:30:03;;;;;;;3.30;1.80;;;;;;;21.12;73.26;100760.05;106520;1254;96487;-83
2023/07/11 10:32:56;;;;;;;3.10;1.90;;;;;;;21.23;72.89;100765.05;106286;1259;100005;-84
2023/07/11 10:35:43;;;;;;;2.90;2.30;;;;;;;21.30;72.01;100760.39;106503;1267;100099;-83
2023/07/11 10:38:58;;;;;;;5.30;2.30;;;;;;;21.34;71.85;100758.16;106417;1255;97797;-82
2023/07/11 10:41:49;;;;;;;8.20;1.80;;;;;;;21.38;70.50;100758.10;106501;1260;96536;-83
2023/07/11 10:44:39;;;;;;;2.70;2.20;;;;;;;21.37;69.48;100757.54;106314;1257;97121;-82
2023/07/11 10:47:30;;;;;;;3.30;2.10;;;;;;;21.38;69.60;100755.36;106416;1259;100087;-83
2023/07/11 10:50:30;;;;;;;2.10;1.90;;;;;;;21.45;70.02;100754.66;106211;1256;100240;-82
2023/07/11 10:53:25;;;;;;;3.30;2.30;;;;;;;21.55;69.71;100754.05;106486;1259;97856;-82
2023/07/11 10:56:34;;;;;;;2.90;2.40;;;;;;;21.63;69.52;100753.33;106512;1259;97074;-81
2023/07/11 10:59:22;;;;;;;3.70;2.50;;;;;;;21.70;69.39;100754.17;106720;1254;96979;-82
2023/07/11 11:02:50;;;;;;;2.90;2.40;;;;;;;21.78;69.74;100752.45;106449;1262;101424;-82
2023/07/11 11:05:50;;;;;;;2.30;2.10;;;;;;;21.89;69.76;100747.16;106394;1258;99434;-81
2023/07/11 11:09:02;;;;;;;3.90;2.20;;;;;;;22.00;68.95;100748.36;106484;1263;98640;-82
2023/07/11 11:12:03;;;;;;;2.40;2.10;;;;;;;22.09;69.22;100751.59;106379;1262;96422;-82
2023/07/11 11:14:59;;;;;;;;;;;;;;;22.14;68.43;100752.58;106575;1259;96524;-81
2023/07/11 11:18:13;;;;;;;4.80;2.40;;;;;;;22.20;68.40;100752.37;106514;1270;100138;-82
2023/07/11 11:21:11;;;;;;;3.40;2.70;;;;;;;22.27;67.99;100752.91;106597;1259;99337;-81
2023/07/11 11:24:02;;;;;;;3.30;2.40;;;;;;;22.32;67.60;100756.02;106498;1267;97694;-83
2023/07/11 11:26:56;;;;;;;4.10;2.50;;;;;;;22.34;66.89;100755.70;106300;1260;96519;-82
2023/07/11 11:29:51;;;;;;;4.70;2.80;;;;;;;22.34;66.73;100747.04;106318;1260;97616;-82
2023/07/11 11:32:46;;;;;;;4.50;3.10;;;;;;;22.43;67.77;100740.23;106389;1260;101343;-82
2023/07/11 11:35:42;;;;;;;3.50;3.00;;;;;;;22.52;66.88;100743.13;106465;1260;99273;-82
2023/07/11 11:38:59;;;;;;;2.60;2.30;;;;;;;22.55;66.33;100742.06;106357;1257;99111;-82
2023/07/11 11:41:52;;;;;;;4.00;2.90;;;;;;;22.62;66.75;100738.16;106352;1263;96493;-83
2023/07/11 11:44:46;;;;;;;4.00;3.00;;;;;;;22.68;65.86;100740.84;106410;1260;97051;-83
2023/07/11 11:47:35;;;;;;;2.70;2.50;;;;;;;22.75;65.78;100740.77;106481;1262;100102;-82
2023/07/11 11:50:24;;;;;;;3.30;2.60;;;;;;;22.83;65.91;100741.75;106663;1260;99061;-81
2023/07/11 11:53:22;;;;;;;3.10;2.80;;;;;;;22.90;65.89;100744.41;106177;1268;99181;-83
2023/07/11 11:56:08;;;;;;;6.50;3.00;;;;;;;23.03;66.00;100739.23;106420;1254;97489;-82
2023/07/11 11:58:59;;;;;;;4.10;2.90;;;;;;;23.17;65.29;100734.50;106426;1259;96508;-82
2023/07/11 12:01:56;;;;;;;7.00;3.50;;;;;;;23.32;64.69;100727.05;106360;1258;101665;-82
2023/07/11 12:05:01;;;;;;;5.30;2.90;;;;;;;23.42;64.27;100724.59;106449;1257;99148;-83
2023/07/11 12:08:27;;;;;;;3.50;2.60;;;;;;;23.48;64.04;100722.09;106346;1260;98930;-82
2023/07/11 12:11:19;;;;;;;3.60;3.00;;;;;;;23.56;63.55;100718.49;106226;1260;96622;-83
2023/07/11 12:14:19;;;;;;;5.30;3.20;;;;;;;23.64;63.26;100717.59;106570;1258;96712;-83
2023/07/11 12:17:45;;;;;;;3.30;3.00;;;;;;;23.77;63.07;100715.27;106468;1259;100026;-82
2023/07/11 12:20:32;;;;;;;7.90;3.20;;;;;;;23.90;61.89;100713.33;106509;1257;100332;-82
2023/07/11 12:23:18;;;;;;;3.10;2.80;;;;;;;23.98;61.85;100711.27;106460;1260;97802;-84
2023/07/11 12:26:11;;;;;;;5.80;4.60;;;;;;;24.09;61.77;100712.98;106400;1259;96585;-81
2023/07/11 12:29:35;;;;;;;3.70;3.30;;;;;;;24.23;60.70;100707.42;106571;1255;97058;-82
2023/07/11 12:32:32;;;;;;;4.30;3.50;;;;;;;24.28;59.93;100701.13;106740;1254;99997;-82
2023/07/11 12:35:24;;;;;;;25.20;7.50;;;;;;;24.38;59.62;100694.98;106556;1257;100394;-82
2023/07/11 12:38:14;;;;;;;10.40;4.10;;;;;;;24.56;59.92;100689.98;106531;1257;99546;-82
2023/07/11 12:41:11;;;;;;;3.80;3.50;;;;;;;24.59;58.50;100695.41;106361;1260;96648;-82
2023/07/11 12:43:57;;;;;;;5.60;3.80;;;;;;;24.60;58.33;100692.49;106517;1254;96524;-82
2023/07/11 12:46:45;;;;;;;6.10;3.70;;;;;;;24.69;58.26;100691.76;106562;1258;100059;-82
2023/07/11 12:49:32;;;;;;;3.90;3.30;;;;;;;24.79;58.01;100688.64;106514;1253;99075;-82
2023/07/11 12:52:21;;;;;;;4.50;3.80;;;;;;;24.86;57.30;100687.30;106695;1260;98281;-81
2023/07/11 12:55:11;;;;;;;10.80;4.30;;;;;;;24.94;56.76;100685.42;106655;1255;96568;-82
2023/07/11 12:57:57;;;;;;;6.10;3.70;;;;;;;24.96;56.29;100683.27;106532;1254;96665;-82
2023/07/11 13:00:43;;;;;;;3.60;3.00;;;;;;;25.04;57.64;100681.44;106751;1254;100891;-81
2023/07/11 13:03:33;;;;;;;3.60;3.30;;;;;;;25.20;56.97;100676.66;106624;1254;99878;-82
2023/07/11 13:06:29;;;;;;;3.60;3.30;;;;;;;25.34;56.75;100678.30;106482;1254;97697;-83
2023/07/11 13:09:15;;;;;;;4.70;3.90;;;;;;;25.46;55.59;100678.86;106726;1258;96594;-83
2023/07/11 13:12:00;;;;;;;9.20;4.50;;;;;;;25.54;56.06;100682.66;106530;1254;96527;-82
2023/07/11 13:14:48;;;;;;;3.60;3.30;;;;;;;25.63;54.98;100679.81;106663;1255;100428;-82
2023/07/11 13:17:33;;;;;;;6.50;3.70;;;;;;;25.66;53.78;100680.23;106490;1257;122878;-82
2023/07/11 13:20:31;;;;;;;4.60;3.50;;;;;;;25.68;53.92;100677.25;106689;1254;97743;-83